sensor_id;sensor_type;location;lat;lon;timestamp;temperature;humidity
6988;DHT22;3534;49.960;8.018;2022-10-18T00:01:04;18.20;99.90
6988;DHT22;3534;49.960;8.018;2022-10-18T00:03:32;18.20;99.90
6988;DHT22;3534;49.960;8.018;2022-10-18T00:06:00;18.30;99.90
6988;DHT22;3534;49.960;8.018;2022-10-18T00:08:28;18.30;99.90
6988;DHT22;3534;49.960;8.018;2022-10-18T00:10:54;18.20;99.90
6988;DHT22;3534;49.960;8.018;2022-10-18T00:13:22;18.10;99.90
6988;DHT22;3534;49.960;8.018;2022-10-18T00:15:50;18.10;99.90
6988;DHT22;3534;49.960;8.018;2022-10-18T00:18:17;18.10;99.90
6988;DHT22;3534;49.960;8.018;2022-10-18T00:20:44;18.10;99.90
6988;DHT22;3534;49.960;8.018;2022-10-18T00:23:12;18.10;99.90
6988;DHT22;3534;49.960;8.018;2022-10-18T00:25:39;18.10;99.90
6988;DHT22;3534;49.960;8.018;2022-10-18T00:28:05;18.10;99.90
6988;DHT22;3534;49.960;8.018;2022-10-18T00:30:32;18.10;99.90
6988;DHT22;3534;49.960;8.018;2022-10-18T00:32:59;18.20;99.90
6988;DHT22;3534;49.960;8.018;2022-10-18T00:35:25;18.20;99.90
6988;DHT22;3534;49.960;8.018;2022-10-18T00:37:52;18.20;99.90
6988;DHT22;3534;49.960;8.018;2022-10-18T00:40:20;18.20;99.90
6988;DHT22;3534;49.960;8.018;2022-10-18T00:42:47;18.20;99.90
6988;DHT22;3534;49.960;8.018;2022-10-18T00:45:18;18.20;99.90
6988;DHT22;3534;49.960;8.018;2022-10-18T00:47:49;18.20;99.90
6988;DHT22;3534;49.960;8.018;2022-10-18T00:50:19;18.20;99.90
6988;DHT22;3534;49.960;8.018;2022-10-18T00:52:49;18.10;99.90
6988;DHT22;3534;49.960;8.018;2022-10-18T00:55:17;18.10;99.90
6988;DHT22;3534;49.960;8.018;2022-10-18T00:57:45;18.10;99.90
6988;DHT22;3534;49.960;8.018;2022-10-18T01:00:13;18.10;99.90
6988;DHT22;3534;49.960;8.018;2022-10-18T01:02:42;18.10;99.90
6988;DHT22;3534;49.960;8.018;2022-10-18T01:05:10;18.10;99.90
6988;DHT22;3534;49.960;8.018;2022-10-18T01:07:56;18.00;99.90
6988;DHT22;3534;49.960;8.018;2022-10-18T01:10:28;18.00;99.90
6988;DHT22;3534;49.960;8.018;2022-10-18T01:13:07;18.10;99.90
6988;DHT22;3534;49.960;8.018;2022-10-18T01:15:42;18.10;99.90
6988;DHT22;3534;49.960;8.018;2022-10-18T01:18:19;18.10;99.90
6988;DHT22;3534;49.960;8.018;2022-10-18T01:21:08;18.10;99.90
6988;DHT22;3534;49.960;8.018;2022-10-18T01:23:51;18.10;99.90
6988;DHT22;3534;49.960;8.018;2022-10-18T01:26:32;18.10;99.90
6988;DHT22;3534;49.960;8.018;2022-10-18T01:29:11;18.00;99.90
6988;DHT22;3534;49.960;8.018;2022-10-18T01:31:45;17.90;99.90
6988;DHT22;3534;49.960;8.018;2022-10-18T01:34:15;17.90;99.90
6988;DHT22;3534;49.960;8.018;2022-10-18T01:36:46;17.90;99.90
6988;DHT22;3534;49.960;8.018;2022-10-18T01:39:15;17.90;99.90
6988;DHT22;3534;49.960;8.018;2022-10-18T01:41:44;17.90;99.90
6988;DHT22;3534;49.960;8.018;2022-10-18T01:44:19;18.00;99.90
6988;DHT22;3534;49.960;8.018;2022-10-18T01:46:49;17.90;99.90
6988;DHT22;3534;49.960;8.018;2022-10-18T01:49:17;18.00;99.90
6988;DHT22;3534;49.960;8.018;2022-10-18T01:51:44;17.90;99.90
6988;DHT22;3534;49.960;8.018;2022-10-18T01:54:13;17.90;99.90
6988;DHT22;3534;49.960;8.018;2022-10-18T01:56:46;17.90;99.90
6988;DHT22;3534;49.960;8.018;2022-10-18T01:59:27;17.90;99.90
6988;DHT22;3534;49.960;8.018;2022-10-18T02:02:06;17.90;99.90
6988;DHT22;3534;49.960;8.018;2022-10-18T02:04:40;17.80;99.90
6988;DHT22;3534;49.960;8.018;2022-10-18T02:07:15;17.90;99.90
6988;DHT22;3534;49.960;8.018;2022-10-18T02:09:50;17.90;99.90
6988;DHT22;3534;49.960;8.018;2022-10-18T02:12:21;17.90;99.90
6988;DHT22;3534;49.960;8.018;2022-10-18T02:14:49;17.80;99.90
6988;DHT22;3534;49.960;8.018;2022-10-18T02:17:18;17.70;99.90
6988;DHT22;3534;49.960;8.018;2022-10-18T02:19:49;17.60;99.90
6988;DHT22;3534;49.960;8.018;2022-10-18T02:22:19;17.60;99.90
6988;DHT22;3534;49.960;8.018;2022-10-18T02:24:50;17.50;99.90
6988;DHT22;3534;49.960;8.018;2022-10-18T02:27:18;17.50;99.90
6988;DHT22;3534;49.960;8.018;2022-10-18T02:29:45;17.60;99.90
6988;DHT22;3534;49.960;8.018;2022-10-18T02:32:19;17.60;99.90
6988;DHT22;3534;49.960;8.018;2022-10-18T02:34:51;17.50;99.90
6988;DHT22;3534;49.960;8.018;2022-10-18T02:37:20;17.30;99.90
6988;DHT22;3534;49.960;8.018;2022-10-18T02:39:48;17.30;99.90
6988;DHT22;3534;49.960;8.018;2022-10-18T02:42:15;17.20;99.90
6988;DHT22;3534;49.960;8.018;2022-10-18T02:44:42;17.20;99.90
6988;DHT22;3534;49.960;8.018;2022-10-18T02:47:10;17.10;99.90
6988;DHT22;3534;49.960;8.018;2022-10-18T02:49:38;17.20;99.90
6988;DHT22;3534;49.960;8.018;2022-10-18T02:52:05;17.30;99.90
6988;DHT22;3534;49.960;8.018;2022-10-18T02:54:31;17.30;99.90
6988;DHT22;3534;49.960;8.018;2022-10-18T02:56:58;17.30;99.90
6988;DHT22;3534;49.960;8.018;2022-10-18T02:59:25;17.30;99.90
6988;DHT22;3534;49.960;8.018;2022-10-18T03:01:51;17.40;99.90
6988;DHT22;3534;49.960;8.018;2022-10-18T03:04:18;17.40;99.90
6988;DHT22;3534;49.960;8.018;2022-10-18T03:06:46;17.40;99.90
6988;DHT22;3534;49.960;8.018;2022-10-18T03:09:13;17.40;99.90
6988;DHT22;3534;49.960;8.018;2022-10-18T03:11:39;17.40;99.90
6988;DHT22;3534;49.960;8.018;2022-10-18T03:14:06;17.40;99.90
6988;DHT22;3534;49.960;8.018;2022-10-18T03:16:33;17.50;99.90
6988;DHT22;3534;49.960;8.018;2022-10-18T03:18:59;17.50;99.90
6988;DHT22;3534;49.960;8.018;2022-10-18T03:21:26;17.50;99.90
6988;DHT22;3534;49.960;8.018;2022-10-18T03:23:54;17.50;99.90
6988;DHT22;3534;49.960;8.018;2022-10-18T03:26:23;17.50;99.90
6988;DHT22;3534;49.960;8.018;2022-10-18T03:28:49;17.50;99.90
6988;DHT22;3534;49.960;8.018;2022-10-18T03:31:16;17.50;99.90
6988;DHT22;3534;49.960;8.018;2022-10-18T03:33:43;17.50;99.90
6988;DHT22;3534;49.960;8.018;2022-10-18T03:36:09;17.50;99.90
6988;DHT22;3534;49.960;8.018;2022-10-18T03:38:37;17.50;99.90
6988;DHT22;3534;49.960;8.018;2022-10-18T03:41:05;17.50;99.90
6988;DHT22;3534;49.960;8.018;2022-10-18T03:43:32;17.50;99.90
6988;DHT22;3534;49.960;8.018;2022-10-18T03:45:59;17.50;99.90
6988;DHT22;3534;49.960;8.018;2022-10-18T03:48:25;17.50;99.90
6988;DHT22;3534;49.960;8.018;2022-10-18T03:50:52;17.50;99.90
6988;DHT22;3534;49.960;8.018;2022-10-18T03:53:19;17.50;99.90
6988;DHT22;3534;49.960;8.018;2022-10-18T03:55:49;17.50;99.90
6988;DHT22;3534;49.960;8.018;2022-10-18T03:58:17;17.50;99.90
6988;DHT22;3534;49.960;8.018;2022-10-18T04:00:44;17.50;99.90
6988;DHT22;3534;49.960;8.018;2022-10-18T04:03:11;17.50;99.90
6988;DHT22;3534;49.960;8.018;2022-10-18T04:05:38;17.50;99.90
6988;DHT22;3534;49.960;8.018;2022-10-18T04:08:04;17.50;99.90
6988;DHT22;3534;49.960;8.018;2022-10-18T04:10:31;17.50;99.90
6988;DHT22;3534;49.960;8.018;2022-10-18T04:12:58;17.50;99.90
6988;DHT22;3534;49.960;8.018;2022-10-18T04:15:26;17.50;99.90
6988;DHT22;3534;49.960;8.018;2022-10-18T04:17:52;17.50;99.90
6988;DHT22;3534;49.960;8.018;2022-10-18T04:20:19;17.40;99.90
6988;DHT22;3534;49.960;8.018;2022-10-18T04:22:47;17.40;99.90
6988;DHT22;3534;49.960;8.018;2022-10-18T04:25:14;17.40;99.90
6988;DHT22;3534;49.960;8.018;2022-10-18T04:27:41;17.40;99.90
6988;DHT22;3534;49.960;8.018;2022-10-18T04:30:09;17.40;99.90
6988;DHT22;3534;49.960;8.018;2022-10-18T04:32:37;17.40;99.90
6988;DHT22;3534;49.960;8.018;2022-10-18T04:35:04;17.40;99.90
6988;DHT22;3534;49.960;8.018;2022-10-18T04:37:32;17.30;99.90
6988;DHT22;3534;49.960;8.018;2022-10-18T04:40:00;17.30;99.90
6988;DHT22;3534;49.960;8.018;2022-10-18T04:42:26;17.30;99.90
6988;DHT22;3534;49.960;8.018;2022-10-18T04:44:53;17.20;99.90
6988;DHT22;3534;49.960;8.018;2022-10-18T04:47:20;17.20;99.90
6988;DHT22;3534;49.960;8.018;2022-10-18T04:49:48;17.20;99.90
6988;DHT22;3534;49.960;8.018;2022-10-18T04:52:14;17.20;99.90
6988;DHT22;3534;49.960;8.018;2022-10-18T04:54:41;17.20;99.90
6988;DHT22;3534;49.960;8.018;2022-10-18T04:57:08;17.20;99.90
6988;DHT22;3534;49.960;8.018;2022-10-18T04:59:34;17.20;99.90
6988;DHT22;3534;49.960;8.018;2022-10-18T05:02:02;17.20;99.90
6988;DHT22;3534;49.960;8.018;2022-10-18T05:04:29;17.10;99.90
6988;DHT22;3534;49.960;8.018;2022-10-18T05:06:57;17.20;99.90
6988;DHT22;3534;49.960;8.018;2022-10-18T05:09:23;17.10;99.90
6988;DHT22;3534;49.960;8.018;2022-10-18T05:11:50;17.10;99.90
6988;DHT22;3534;49.960;8.018;2022-10-18T05:14:17;17.10;99.90
6988;DHT22;3534;49.960;8.018;2022-10-18T05:16:44;17.00;99.90
6988;DHT22;3534;49.960;8.018;2022-10-18T05:19:10;17.10;99.90
6988;DHT22;3534;49.960;8.018;2022-10-18T05:21:37;17.10;99.90
6988;DHT22;3534;49.960;8.018;2022-10-18T05:24:05;17.10;99.90
6988;DHT22;3534;49.960;8.018;2022-10-18T05:26:32;17.20;99.90
6988;DHT22;3534;49.960;8.018;2022-10-18T05:28:59;17.20;99.90
6988;DHT22;3534;49.960;8.018;2022-10-18T05:31:25;17.20;99.90
6988;DHT22;3534;49.960;8.018;2022-10-18T05:33:52;17.20;99.90
6988;DHT22;3534;49.960;8.018;2022-10-18T05:36:19;17.20;99.90
6988;DHT22;3534;49.960;8.018;2022-10-18T05:38:45;17.20;99.90
6988;DHT22;3534;49.960;8.018;2022-10-18T05:41:14;17.30;99.90
6988;DHT22;3534;49.960;8.018;2022-10-18T05:43:40;17.30;99.90
6988;DHT22;3534;49.960;8.018;2022-10-18T05:46:07;17.30;99.90
6988;DHT22;3534;49.960;8.018;2022-10-18T05:48:34;17.20;99.90
6988;DHT22;3534;49.960;8.018;2022-10-18T05:51:01;17.20;99.90
6988;DHT22;3534;49.960;8.018;2022-10-18T05:53:27;17.20;99.90
6988;DHT22;3534;49.960;8.018;2022-10-18T05:55:58;17.20;99.90
6988;DHT22;3534;49.960;8.018;2022-10-18T05:58:26;17.30;99.90
6988;DHT22;3534;49.960;8.018;2022-10-18T06:00:53;17.20;99.90
6988;DHT22;3534;49.960;8.018;2022-10-18T06:03:19;17.30;99.90
6988;DHT22;3534;49.960;8.018;2022-10-18T06:05:46;17.30;99.90
6988;DHT22;3534;49.960;8.018;2022-10-18T06:08:12;17.30;99.90
6988;DHT22;3534;49.960;8.018;2022-10-18T06:10:39;17.30;99.90
6988;DHT22;3534;49.960;8.018;2022-10-18T06:13:06;17.30;99.90
6988;DHT22;3534;49.960;8.018;2022-10-18T06:15:34;17.30;99.90
6988;DHT22;3534;49.960;8.018;2022-10-18T06:18:00;17.30;99.90
6988;DHT22;3534;49.960;8.018;2022-10-18T06:20:27;17.30;99.90
6988;DHT22;3534;49.960;8.018;2022-10-18T06:22:54;17.30;99.90
6988;DHT22;3534;49.960;8.018;2022-10-18T06:25:20;17.30;99.90
6988;DHT22;3534;49.960;8.018;2022-10-18T06:27:47;17.30;99.90
6988;DHT22;3534;49.960;8.018;2022-10-18T06:30:14;17.30;99.90
6988;DHT22;3534;49.960;8.018;2022-10-18T06:32:42;17.40;99.90
6988;DHT22;3534;49.960;8.018;2022-10-18T06:35:08;17.30;99.90
6988;DHT22;3534;49.960;8.018;2022-10-18T06:37:35;17.30;99.90
6988;DHT22;3534;49.960;8.018;2022-10-18T06:40:03;17.40;99.90
6988;DHT22;3534;49.960;8.018;2022-10-18T06:42:30;17.40;99.90
6988;DHT22;3534;49.960;8.018;2022-10-18T06:44:56;17.40;99.90
6988;DHT22;3534;49.960;8.018;2022-10-18T06:47:24;17.40;99.90
6988;DHT22;3534;49.960;8.018;2022-10-18T06:49:52;17.40;99.90
6988;DHT22;3534;49.960;8.018;2022-10-18T06:52:19;17.40;99.90
6988;DHT22;3534;49.960;8.018;2022-10-18T06:54:50;17.40;99.90
6988;DHT22;3534;49.960;8.018;2022-10-18T06:57:16;17.40;99.90
6988;DHT22;3534;49.960;8.018;2022-10-18T06:59:43;17.40;99.90
6988;DHT22;3534;49.960;8.018;2022-10-18T07:02:13;17.50;99.90
6988;DHT22;3534;49.960;8.018;2022-10-18T07:04:40;17.50;99.90
6988;DHT22;3534;49.960;8.018;2022-10-18T07:07:08;17.50;99.90
6988;DHT22;3534;49.960;8.018;2022-10-18T07:09:35;17.50;99.90
6988;DHT22;3534;49.960;8.018;2022-10-18T07:12:02;17.50;99.90
6988;DHT22;3534;49.960;8.018;2022-10-18T07:14:29;17.60;99.90
6988;DHT22;3534;49.960;8.018;2022-10-18T07:16:58;17.60;99.90
6988;DHT22;3534;49.960;8.018;2022-10-18T07:19:24;17.60;99.90
6988;DHT22;3534;49.960;8.018;2022-10-18T07:21:51;17.60;99.90
6988;DHT22;3534;49.960;8.018;2022-10-18T07:24:19;17.70;99.90
6988;DHT22;3534;49.960;8.018;2022-10-18T07:26:46;17.70;99.90
6988;DHT22;3534;49.960;8.018;2022-10-18T07:29:12;17.70;99.90
6988;DHT22;3534;49.960;8.018;2022-10-18T07:31:39;17.70;99.90
6988;DHT22;3534;49.960;8.018;2022-10-18T07:34:11;17.70;99.90
6988;DHT22;3534;49.960;8.018;2022-10-18T07:36:38;17.70;99.90
6988;DHT22;3534;49.960;8.018;2022-10-18T07:39:05;17.70;99.90
6988;DHT22;3534;49.960;8.018;2022-10-18T07:41:33;17.70;99.90
6988;DHT22;3534;49.960;8.018;2022-10-18T07:44:00;17.70;99.90
6988;DHT22;3534;49.960;8.018;2022-10-18T07:46:27;17.80;99.90
6988;DHT22;3534;49.960;8.018;2022-10-18T07:48:54;17.80;99.90
6988;DHT22;3534;49.960;8.018;2022-10-18T07:51:22;17.80;99.90
6988;DHT22;3534;49.960;8.018;2022-10-18T07:53:49;17.80;99.90
6988;DHT22;3534;49.960;8.018;2022-10-18T07:56:18;17.70;99.90
6988;DHT22;3534;49.960;8.018;2022-10-18T07:58:48;17.70;99.90
6988;DHT22;3534;49.960;8.018;2022-10-18T08:01:15;17.70;99.90
6988;DHT22;3534;49.960;8.018;2022-10-18T08:03:42;17.70;99.90
6988;DHT22;3534;49.960;8.018;2022-10-18T08:06:10;17.70;99.90
6988;DHT22;3534;49.960;8.018;2022-10-18T08:08:39;17.60;99.90
6988;DHT22;3534;49.960;8.018;2022-10-18T08:11:07;17.60;99.90
6988;DHT22;3534;49.960;8.018;2022-10-18T08:13:34;17.60;99.90
6988;DHT22;3534;49.960;8.018;2022-10-18T08:16:04;17.70;99.90
6988;DHT22;3534;49.960;8.018;2022-10-18T08:18:32;17.70;99.90
6988;DHT22;3534;49.960;8.018;2022-10-18T08:20:59;17.70;99.90
6988;DHT22;3534;49.960;8.018;2022-10-18T08:23:25;17.70;99.90
6988;DHT22;3534;49.960;8.018;2022-10-18T08:25:52;17.70;99.90
6988;DHT22;3534;49.960;8.018;2022-10-18T08:28:19;17.80;99.90
6988;DHT22;3534;49.960;8.018;2022-10-18T08:30:45;17.80;99.90
6988;DHT22;3534;49.960;8.018;2022-10-18T08:33:14;17.90;99.90
6988;DHT22;3534;49.960;8.018;2022-10-18T08:35:40;17.90;99.90
6988;DHT22;3534;49.960;8.018;2022-10-18T08:38:07;17.90;99.90
6988;DHT22;3534;49.960;8.018;2022-10-18T08:40:41;17.90;99.90
6988;DHT22;3534;49.960;8.018;2022-10-18T08:43:14;17.90;99.90
6988;DHT22;3534;49.960;8.018;2022-10-18T08:45:42;18.00;99.90
6988;DHT22;3534;49.960;8.018;2022-10-18T08:48:19;18.00;99.90
6988;DHT22;3534;49.960;8.018;2022-10-18T08:50:47;18.00;99.90
6988;DHT22;3534;49.960;8.018;2022-10-18T08:53:19;18.00;99.90
6988;DHT22;3534;49.960;8.018;2022-10-18T08:55:53;18.10;99.90
6988;DHT22;3534;49.960;8.018;2022-10-18T08:58:22;18.10;99.90
6988;DHT22;3534;49.960;8.018;2022-10-18T09:00:57;18.10;99.90
6988;DHT22;3534;49.960;8.018;2022-10-18T09:03:47;18.10;99.90
6988;DHT22;3534;49.960;8.018;2022-10-18T09:06:20;18.10;99.90
6988;DHT22;3534;49.960;8.018;2022-10-18T09:09:11;18.10;99.90
6988;DHT22;3534;49.960;8.018;2022-10-18T09:11:49;18.00;99.90
6988;DHT22;3534;49.960;8.018;2022-10-18T09:14:35;18.10;99.90
6988;DHT22;3534;49.960;8.018;2022-10-18T09:17:13;18.10;99.90
6988;DHT22;3534;49.960;8.018;2022-10-18T09:19:51;18.10;99.90
6988;DHT22;3534;49.960;8.018;2022-10-18T09:22:29;18.10;99.90
6988;DHT22;3534;49.960;8.018;2022-10-18T09:25:04;18.10;99.90
6988;DHT22;3534;49.960;8.018;2022-10-18T09:27:36;18.10;99.90
6988;DHT22;3534;49.960;8.018;2022-10-18T09:30:14;18.10;99.90
6988;DHT22;3534;49.960;8.018;2022-10-18T09:32:48;18.20;99.90
6988;DHT22;3534;49.960;8.018;2022-10-18T09:35:21;18.20;99.90
6988;DHT22;3534;49.960;8.018;2022-10-18T09:37:49;18.30;99.90
6988;DHT22;3534;49.960;8.018;2022-10-18T09:40:21;18.30;99.90
6988;DHT22;3534;49.960;8.018;2022-10-18T09:42:54;18.40;99.90
6988;DHT22;3534;49.960;8.018;2022-10-18T09:45:25;18.50;99.90
6988;DHT22;3534;49.960;8.018;2022-10-18T09:48:00;18.50;99.90
6988;DHT22;3534;49.960;8.018;2022-10-18T09:50:35;18.60;99.90
6988;DHT22;3534;49.960;8.018;2022-10-18T09:53:10;18.60;99.90
6988;DHT22;3534;49.960;8.018;2022-10-18T09:55:43;18.70;99.90
6988;DHT22;3534;49.960;8.018;2022-10-18T09:58:15;18.80;99.90
6988;DHT22;3534;49.960;8.018;2022-10-18T10:00:46;18.80;99.90
6988;DHT22;3534;49.960;8.018;2022-10-18T10:03:14;18.90;99.90
6988;DHT22;3534;49.960;8.018;2022-10-18T10:05:43;18.90;99.90
6988;DHT22;3534;49.960;8.018;2022-10-18T10:08:10;19.00;99.90
6988;DHT22;3534;49.960;8.018;2022-10-18T10:10:38;19.00;99.90
6988;DHT22;3534;49.960;8.018;2022-10-18T10:13:13;19.10;99.90
6988;DHT22;3534;49.960;8.018;2022-10-18T10:15:45;19.00;99.90
6988;DHT22;3534;49.960;8.018;2022-10-18T10:18:18;19.10;99.90
6988;DHT22;3534;49.960;8.018;2022-10-18T10:20:50;19.10;99.90
6988;DHT22;3534;49.960;8.018;2022-10-18T10:23:20;19.10;99.90
6988;DHT22;3534;49.960;8.018;2022-10-18T10:25:50;19.20;99.90
6988;DHT22;3534;49.960;8.018;2022-10-18T10:28:19;19.20;99.90
6988;DHT22;3534;49.960;8.018;2022-10-18T10:30:46;19.20;99.90
6988;DHT22;3534;49.960;8.018;2022-10-18T10:33:31;19.20;99.90
6988;DHT22;3534;49.960;8.018;2022-10-18T10:36:01;19.30;99.90
6988;DHT22;3534;49.960;8.018;2022-10-18T10:38:29;19.30;99.90
6988;DHT22;3534;49.960;8.018;2022-10-18T10:40:57;19.30;99.90
6988;DHT22;3534;49.960;8.018;2022-10-18T10:43:26;19.40;99.90
6988;DHT22;3534;49.960;8.018;2022-10-18T10:45:59;19.40;99.90
6988;DHT22;3534;49.960;8.018;2022-10-18T10:48:27;19.40;99.90
6988;DHT22;3534;49.960;8.018;2022-10-18T10:51:02;19.40;99.90
6988;DHT22;3534;49.960;8.018;2022-10-18T10:53:41;19.40;99.90
6988;DHT22;3534;49.960;8.018;2022-10-18T10:56:31;19.40;99.90
6988;DHT22;3534;49.960;8.018;2022-10-18T10:59:05;19.50;99.90
6988;DHT22;3534;49.960;8.018;2022-10-18T11:01:33;19.60;99.90
6988;DHT22;3534;49.960;8.018;2022-10-18T11:04:02;19.60;99.90
6988;DHT22;3534;49.960;8.018;2022-10-18T11:06:54;19.70;99.90
6988;DHT22;3534;49.960;8.018;2022-10-18T11:09:52;19.80;99.90
6988;DHT22;3534;49.960;8.018;2022-10-18T11:12:31;19.80;99.90
6988;DHT22;3534;49.960;8.018;2022-10-18T11:15:06;19.90;99.90
6988;DHT22;3534;49.960;8.018;2022-10-18T11:17:41;20.10;99.90
6988;DHT22;3534;49.960;8.018;2022-10-18T11:20:17;20.40;99.90
6988;DHT22;3534;49.960;8.018;2022-10-18T11:22:55;20.60;99.90
6988;DHT22;3534;49.960;8.018;2022-10-18T11:25:24;20.80;99.90
6988;DHT22;3534;49.960;8.018;2022-10-18T11:27:56;21.00;99.90
6988;DHT22;3534;49.960;8.018;2022-10-18T11:30:40;21.20;99.90
6988;DHT22;3534;49.960;8.018;2022-10-18T11:33:20;21.40;99.90
6988;DHT22;3534;49.960;8.018;2022-10-18T11:35:51;21.70;99.90
6988;DHT22;3534;49.960;8.018;2022-10-18T11:38:38;21.80;99.90
6988;DHT22;3534;49.960;8.018;2022-10-18T11:41:21;21.90;99.90
6988;DHT22;3534;49.960;8.018;2022-10-18T11:43:53;22.00;99.90
6988;DHT22;3534;49.960;8.018;2022-10-18T11:46:25;22.10;99.90
6988;DHT22;3534;49.960;8.018;2022-10-18T11:49:02;22.20;99.90
6988;DHT22;3534;49.960;8.018;2022-10-18T11:51:39;22.20;99.90
6988;DHT22;3534;49.960;8.018;2022-10-18T11:54:23;22.20;99.90
6988;DHT22;3534;49.960;8.018;2022-10-18T11:56:56;22.30;99.90
6988;DHT22;3534;49.960;8.018;2022-10-18T11:59:31;22.30;99.90
6988;DHT22;3534;49.960;8.018;2022-10-18T12:02:18;22.30;99.90
6988;DHT22;3534;49.960;8.018;2022-10-18T12:04:50;22.20;99.90
6988;DHT22;3534;49.960;8.018;2022-10-18T12:07:19;22.20;99.90
6988;DHT22;3534;49.960;8.018;2022-10-18T12:09:50;22.00;99.90
6988;DHT22;3534;49.960;8.018;2022-10-18T12:12:23;21.90;99.90
6988;DHT22;3534;49.960;8.018;2022-10-18T12:14:53;22.00;99.90
6988;DHT22;3534;49.960;8.018;2022-10-18T12:17:27;21.90;99.90
6988;DHT22;3534;49.960;8.018;2022-10-18T12:19:58;21.90;99.90
6988;DHT22;3534;49.960;8.018;2022-10-18T12:22:31;22.10;99.90
6988;DHT22;3534;49.960;8.018;2022-10-18T12:25:01;22.30;99.90
6988;DHT22;3534;49.960;8.018;2022-10-18T12:27:41;22.30;99.90
6988;DHT22;3534;49.960;8.018;2022-10-18T12:30:14;22.40;99.90
6988;DHT22;3534;49.960;8.018;2022-10-18T12:32:43;22.20;99.90
6988;DHT22;3534;49.960;8.018;2022-10-18T12:35:14;21.90;99.90
6988;DHT22;3534;49.960;8.018;2022-10-18T12:37:57;21.80;99.90
6988;DHT22;3534;49.960;8.018;2022-10-18T12:40:37;21.70;99.90
6988;DHT22;3534;49.960;8.018;2022-10-18T12:43:08;21.50;99.90
6988;DHT22;3534;49.960;8.018;2022-10-18T12:45:47;21.50;99.90
6988;DHT22;3534;49.960;8.018;2022-10-18T12:48:28;21.50;99.90
6988;DHT22;3534;49.960;8.018;2022-10-18T12:50:57;21.90;99.90
6988;DHT22;3534;49.960;8.018;2022-10-18T12:53:26;22.20;99.90
6988;DHT22;3534;49.960;8.018;2022-10-18T12:55:55;22.60;99.90
6988;DHT22;3534;49.960;8.018;2022-10-18T12:58:41;22.80;99.90
6988;DHT22;3534;49.960;8.018;2022-10-18T13:01:08;22.80;99.90
6988;DHT22;3534;49.960;8.018;2022-10-18T13:06:23;23.00;99.90
6988;DHT22;3534;49.960;8.018;2022-10-18T13:09:16;23.10;99.90
6988;DHT22;3534;49.960;8.018;2022-10-18T13:11:44;23.20;99.90
6988;DHT22;3534;49.960;8.018;2022-10-18T13:14:35;23.30;99.90
6988;DHT22;3534;49.960;8.018;2022-10-18T13:17:12;23.40;99.90
6988;DHT22;3534;49.960;8.018;2022-10-18T13:19:50;23.30;99.90
6988;DHT22;3534;49.960;8.018;2022-10-18T13:22:34;23.40;99.90
6988;DHT22;3534;49.960;8.018;2022-10-18T13:25:09;23.40;99.90
6988;DHT22;3534;49.960;8.018;2022-10-18T13:27:45;23.20;99.90
6988;DHT22;3534;49.960;8.018;2022-10-18T13:30:28;23.30;99.90
6988;DHT22;3534;49.960;8.018;2022-10-18T13:33:01;23.10;99.90
6988;DHT22;3534;49.960;8.018;2022-10-18T13:35:56;23.10;99.90
6988;DHT22;3534;49.960;8.018;2022-10-18T13:38:36;22.90;99.90
6988;DHT22;3534;49.960;8.018;2022-10-18T13:41:06;22.90;99.90
6988;DHT22;3534;49.960;8.018;2022-10-18T13:50:02;22.90;99.90
6988;DHT22;3534;49.960;8.018;2022-10-18T13:52:45;22.80;99.90
6988;DHT22;3534;49.960;8.018;2022-10-18T13:55:30;22.80;99.90
6988;DHT22;3534;49.960;8.018;2022-10-18T13:58:04;22.70;99.90
6988;DHT22;3534;49.960;8.018;2022-10-18T14:00:43;22.50;99.90
6988;DHT22;3534;49.960;8.018;2022-10-18T14:03:28;22.30;99.90
6988;DHT22;3534;49.960;8.018;2022-10-18T14:06:04;22.10;99.90
6988;DHT22;3534;49.960;8.018;2022-10-18T14:08:34;22.00;99.90
6988;DHT22;3534;49.960;8.018;2022-10-18T14:11:05;21.90;99.90
6988;DHT22;3534;49.960;8.018;2022-10-18T14:13:40;21.80;99.90
6988;DHT22;3534;49.960;8.018;2022-10-18T14:16:28;21.80;99.90
6988;DHT22;3534;49.960;8.018;2022-10-18T14:19:03;21.70;99.90
6988;DHT22;3534;49.960;8.018;2022-10-18T14:21:37;21.80;99.90
6988;DHT22;3534;49.960;8.018;2022-10-18T14:24:16;21.90;99.90
6988;DHT22;3534;49.960;8.018;2022-10-18T14:26:43;21.70;99.90
6988;DHT22;3534;49.960;8.018;2022-10-18T14:29:17;21.70;99.90
6988;DHT22;3534;49.960;8.018;2022-10-18T14:31:51;21.80;99.90
6988;DHT22;3534;49.960;8.018;2022-10-18T14:34:18;22.00;99.90
6988;DHT22;3534;49.960;8.018;2022-10-18T14:36:48;22.30;99.90
6988;DHT22;3534;49.960;8.018;2022-10-18T14:39:18;22.70;99.90
6988;DHT22;3534;49.960;8.018;2022-10-18T14:41:50;23.10;99.90
6988;DHT22;3534;49.960;8.018;2022-10-18T14:44:19;23.50;99.90
6988;DHT22;3534;49.960;8.018;2022-10-18T14:46:48;23.50;99.90
6988;DHT22;3534;49.960;8.018;2022-10-18T14:49:16;23.50;99.90
6988;DHT22;3534;49.960;8.018;2022-10-18T14:51:47;23.30;99.90
6988;DHT22;3534;49.960;8.018;2022-10-18T14:54:16;23.10;99.90
6988;DHT22;3534;49.960;8.018;2022-10-18T14:56:43;22.90;99.90
6988;DHT22;3534;49.960;8.018;2022-10-18T14:59:15;22.80;99.90
6988;DHT22;3534;49.960;8.018;2022-10-18T15:01:51;22.60;99.90
6988;DHT22;3534;49.960;8.018;2022-10-18T15:04:18;22.50;99.90
6988;DHT22;3534;49.960;8.018;2022-10-18T15:06:47;22.50;99.90
6988;DHT22;3534;49.960;8.018;2022-10-18T15:09:19;22.40;99.90
6988;DHT22;3534;49.960;8.018;2022-10-18T15:11:47;22.30;99.90
6988;DHT22;3534;49.960;8.018;2022-10-18T15:14:17;22.30;99.90
6988;DHT22;3534;49.960;8.018;2022-10-18T15:16:45;22.30;99.90
6988;DHT22;3534;49.960;8.018;2022-10-18T15:19:28;22.30;99.90
6988;DHT22;3534;49.960;8.018;2022-10-18T15:21:58;22.20;99.90
6988;DHT22;3534;49.960;8.018;2022-10-18T15:24:31;22.10;99.90
6988;DHT22;3534;49.960;8.018;2022-10-18T15:27:01;21.90;99.90
6988;DHT22;3534;49.960;8.018;2022-10-18T15:29:34;21.80;99.90
6988;DHT22;3534;49.960;8.018;2022-10-18T15:32:11;21.60;99.90
6988;DHT22;3534;49.960;8.018;2022-10-18T15:34:39;21.60;99.90
6988;DHT22;3534;49.960;8.018;2022-10-18T15:37:17;21.70;99.90
6988;DHT22;3534;49.960;8.018;2022-10-18T15:39:44;21.70;99.90
6988;DHT22;3534;49.960;8.018;2022-10-18T15:42:38;21.80;99.90
6988;DHT22;3534;49.960;8.018;2022-10-18T15:45:28;21.80;99.90
6988;DHT22;3534;49.960;8.018;2022-10-18T15:48:01;21.80;99.90
6988;DHT22;3534;49.960;8.018;2022-10-18T15:50:39;21.80;99.90
6988;DHT22;3534;49.960;8.018;2022-10-18T15:53:34;21.80;99.90
6988;DHT22;3534;49.960;8.018;2022-10-18T15:56:10;21.80;99.90
6988;DHT22;3534;49.960;8.018;2022-10-18T15:58:42;21.80;99.90
6988;DHT22;3534;49.960;8.018;2022-10-18T16:01:15;21.70;99.90
6988;DHT22;3534;49.960;8.018;2022-10-18T16:03:42;21.70;99.90
6988;DHT22;3534;49.960;8.018;2022-10-18T16:06:10;21.70;99.90
6988;DHT22;3534;49.960;8.018;2022-10-18T16:08:40;21.70;99.90
6988;DHT22;3534;49.960;8.018;2022-10-18T16:11:11;21.60;99.90
6988;DHT22;3534;49.960;8.018;2022-10-18T16:13:38;21.50;99.90
6988;DHT22;3534;49.960;8.018;2022-10-18T16:16:05;21.50;99.90
6988;DHT22;3534;49.960;8.018;2022-10-18T16:18:32;21.50;99.90
6988;DHT22;3534;49.960;8.018;2022-10-18T16:20:59;21.50;99.90
6988;DHT22;3534;49.960;8.018;2022-10-18T16:23:27;21.50;99.90
6988;DHT22;3534;49.960;8.018;2022-10-18T16:25:55;21.40;99.90
6988;DHT22;3534;49.960;8.018;2022-10-18T16:28:24;21.40;99.90
6988;DHT22;3534;49.960;8.018;2022-10-18T16:30:54;21.40;99.90
6988;DHT22;3534;49.960;8.018;2022-10-18T16:33:22;21.30;99.90
6988;DHT22;3534;49.960;8.018;2022-10-18T16:35:52;21.20;99.90